Time;durP1;ratioP1;P1;durP2;ratioP2;P2;SDS_P1;SDS_P2;PMS_P1;PMS_P2;Temp;Humidity;BMP_temperature;BMP_pressure;BME280_temperature;BME280_humidity;BME280_pressure;Samples;Min_cycle;Max_cycle;Signal;HPM_P1;HPM_P2
2022/07/19 00:00:15;;;;;;;5.07;1.80;;;;;;;;;;5064481;28;20205;-72
2022/07/19 00:02:41;;;;;;;3.13;1.65;;;;;;;;;;5067027;28;20196;-72
2022/07/19 00:05:08;;;;;;;2.83;1.65;;;;;;;;;;5067108;28;20190;-72
2022/07/19 00:07:34;;;;;;;1.77;1.60;;;;;;;;;;5066859;28;20535;-71
2022/07/19 00:10:00;;;;;;;2.55;1.67;;;;;;;;;;5065991;28;20261;-71
2022/07/19 00:12:27;;;;;;;2.45;1.52;;;;;;;;;;5066641;28;20240;-71
2022/07/19 00:14:53;;;;;;;3.70;1.58;;;;;;;;;;5066055;28;20189;-71
2022/07/19 00:17:19;;;;;;;2.47;1.58;;;;;;;;;;5066904;28;20193;-71
2022/07/19 00:19:45;;;;;;;3.33;1.60;;;;;;;;;;5066088;28;20209;-72
2022/07/19 00:22:11;;;;;;;1.70;1.50;;;;;;;;;;5066546;28;20273;-71
2022/07/19 00:24:37;;;;;;;3.38;1.90;;;;;;;;;;5065891;28;20612;-72
2022/07/19 00:27:03;;;;;;;3.30;1.52;;;;;;;;;;5066844;28;20190;-72
2022/07/19 00:29:29;;;;;;;2.22;1.20;;;;;;;;;;5065996;28;20189;-73
2022/07/19 00:31:55;;;;;;;2.25;1.42;;;;;;;;;;5065595;28;20219;-72
2022/07/19 00:34:21;;;;;;;2.67;1.77;;;;;;;;;;5066020;28;20669;-72
2022/07/19 00:36:46;;;;;;;2.10;1.85;;;;;;;;;;5065733;28;20189;-72
2022/07/19 00:39:12;;;;;;;3.58;2.03;;;;;;;;;;5065549;28;20257;-72
2022/07/19 00:41:42;;;;;;;4.80;2.22;;;;;;;;;;5066129;28;20706;-71
2022/07/19 00:44:09;;;;;;;8.98;1.98;;;;;;;;;;5066199;28;20213;-71
2022/07/19 00:46:36;;;;;;;3.63;1.70;;;;;;;;;;5066760;28;20619;-72
2022/07/19 00:49:02;;;;;;;4.78;2.47;;;;;;;;;;5065681;28;20174;-72
2022/07/19 00:51:28;;;;;;;3.42;1.80;;;;;;;;;;5066746;28;20201;-72
2022/07/19 00:53:55;;;;;;;2.60;1.88;;;;;;;;;;5065314;28;20178;-72
2022/07/19 00:56:21;;;;;;;2.33;1.70;;;;;;;;;;5065631;28;20268;-72
2022/07/19 00:58:48;;;;;;;4.57;1.70;;;;;;;;;;5064987;28;20217;-72
2022/07/19 01:01:14;;;;;;;6.18;2.05;;;;;;;;;;5066334;28;20208;-72
2022/07/19 01:03:41;;;;;;;3.78;2.05;;;;;;;;;;5065543;28;20177;-72
2022/07/19 01:06:07;;;;;;;6.05;2.08;;;;;;;;;;5066296;28;20312;-74
2022/07/19 01:08:33;;;;;;;5.07;1.83;;;;;;;;;;5065266;28;20197;-70
2022/07/19 01:10:59;;;;;;;2.67;1.63;;;;;;;;;;5066065;28;20208;-73
2022/07/19 01:13:25;;;;;;;2.35;1.50;;;;;;;;;;5065174;28;20213;-72
2022/07/19 01:15:51;;;;;;;2.53;1.70;;;;;;;;;;5065287;28;20259;-72
2022/07/19 01:18:17;;;;;;;2.55;1.90;;;;;;;;;;5064553;28;20216;-72
2022/07/19 01:20:43;;;;;;;2.78;1.63;;;;;;;;;;5064878;28;20631;-73
2022/07/19 01:23:09;;;;;;;2.47;1.50;;;;;;;;;;5065504;28;20189;-72
2022/07/19 01:25:37;;;;;;;2.70;1.50;;;;;;;;;;5066104;28;20220;-72
2022/07/19 01:28:07;;;;;;;3.35;1.98;;;;;;;;;;5065941;28;20178;-72
2022/07/19 01:30:33;;;;;;;3.45;2.38;;;;;;;;;;5065032;28;20213;-71
2022/07/19 01:32:59;;;;;;;2.53;1.90;;;;;;;;;;5065713;28;20209;-72
2022/07/19 01:35:25;;;;;;;2.08;1.63;;;;;;;;;;5066052;28;20182;-71
2022/07/19 01:37:52;;;;;;;3.13;1.80;;;;;;;;;;5064284;28;20668;-72
2022/07/19 01:40:18;;;;;;;2.17;1.60;;;;;;;;;;5064502;28;20193;-72
2022/07/19 01:42:45;;;;;;;2.25;1.58;;;;;;;;;;5065582;28;20543;-72
2022/07/19 01:45:11;;;;;;;2.85;1.70;;;;;;;;;;5065087;28;20186;-70
2022/07/19 01:47:37;;;;;;;6.35;1.70;;;;;;;;;;5065606;28;20181;-72
2022/07/19 01:50:05;;;;;;;3.03;1.88;;;;;;;;;;5063943;28;20201;-72
2022/07/19 01:52:31;;;;;;;1.55;1.35;;;;;;;;;;5065425;28;20221;-72
2022/07/19 01:54:57;;;;;;;2.95;2.03;;;;;;;;;;5065198;28;20181;-72
2022/07/19 01:57:23;;;;;;;2.67;1.67;;;;;;;;;;5065370;28;20189;-73
2022/07/19 01:59:49;;;;;;;1.95;1.48;;;;;;;;;;5064086;28;20213;-72
2022/07/19 02:02:15;;;;;;;3.33;1.80;;;;;;;;;;5064424;28;20197;-73
2022/07/19 02:04:41;;;;;;;7.75;2.28;;;;;;;;;;5063979;28;20279;-72
2022/07/19 02:07:07;;;;;;;2.75;1.88;;;;;;;;;;5064808;28;20273;-72
2022/07/19 02:09:33;;;;;;;2.60;1.95;;;;;;;;;;5063530;28;20205;-72
2022/07/19 02:11:59;;;;;;;3.45;1.90;;;;;;;;;;5065087;28;20306;-72
2022/07/19 02:14:25;;;;;;;3.53;1.85;;;;;;;;;;5064565;28;20640;-72
2022/07/19 02:16:51;;;;;;;4.13;1.70;;;;;;;;;;5065157;28;20189;-72
2022/07/19 02:19:17;;;;;;;2.45;1.77;;;;;;;;;;5063618;28;20186;-72
2022/07/19 02:21:43;;;;;;;2.47;1.83;;;;;;;;;;5064973;28;20559;-72
2022/07/19 02:24:09;;;;;;;4.88;2.22;;;;;;;;;;5063881;28;20194;-72
2022/07/19 02:26:35;;;;;;;2.53;1.90;;;;;;;;;;5064731;28;20188;-73
2022/07/19 02:29:02;;;;;;;1.92;1.70;;;;;;;;;;5064523;28;20185;-72
2022/07/19 02:31:28;;;;;;;2.65;1.98;;;;;;;;;;5064367;28;20207;-72
2022/07/19 02:33:54;;;;;;;3.75;2.00;;;;;;;;;;5064593;28;20189;-72
2022/07/19 02:36:20;;;;;;;2.08;1.80;;;;;;;;;;5063363;28;20799;-72
2022/07/19 02:38:46;;;;;;;2.00;1.73;;;;;;;;;;5061806;28;20549;-73
2022/07/19 02:41:13;;;;;;;4.10;2.00;;;;;;;;;;5062177;28;20271;-72
2022/07/19 02:43:40;;;;;;;4.53;2.10;;;;;;;;;;5062337;28;20622;-72
2022/07/19 02:46:06;;;;;;;3.17;2.10;;;;;;;;;;5062834;28;20189;-72
2022/07/19 02:48:32;;;;;;;2.25;2.05;;;;;;;;;;5062936;28;20264;-72
2022/07/19 02:50:59;;;;;;;2.08;1.80;;;;;;;;;;5063504;28;20202;-72
2022/07/19 02:53:25;;;;;;;3.10;1.90;;;;;;;;;;5062934;28;20216;-72
2022/07/19 02:55:51;;;;;;;2.40;2.00;;;;;;;;;;5063516;28;20182;-73
2022/07/19 02:58:17;;;;;;;5.20;2.25;;;;;;;;;;5063024;28;20562;-72
2022/07/19 03:00:44;;;;;;;2.35;1.83;;;;;;;;;;5063474;28;20209;-73
2022/07/19 03:05:55;;;;;;;1.90;1.60;;;;;;;;;;5064419;28;20663;-72
2022/07/19 03:08:21;;;;;;;3.05;1.88;;;;;;;;;;5063522;28;20272;-72
2022/07/19 03:10:47;;;;;;;3.42;1.80;;;;;;;;;;5062497;28;20304;-72
2022/07/19 03:13:13;;;;;;;3.45;2.00;;;;;;;;;;5063707;28;20381;-72
2022/07/19 03:15:39;;;;;;;2.10;1.90;;;;;;;;;;5062732;28;20268;-72
2022/07/19 03:18:05;;;;;;;3.47;2.35;;;;;;;;;;5060812;28;20188;-72
2022/07/19 03:20:32;;;;;;;2.92;1.80;;;;;;;;;;5060972;28;20208;-72
2022/07/19 03:22:58;;;;;;;2.78;2.38;;;;;;;;;;5062998;28;20226;-72
2022/07/19 03:25:24;;;;;;;2.35;1.75;;;;;;;;;;5062462;28;20274;-71
2022/07/19 03:27:50;;;;;;;2.28;1.70;;;;;;;;;;5061243;28;20190;-72
2022/07/19 03:30:16;;;;;;;2.20;2.00;;;;;;;;;;5061675;28;20205;-73
2022/07/19 03:32:42;;;;;;;2.45;1.88;;;;;;;;;;5062051;28;20213;-73
2022/07/19 03:35:09;;;;;;;3.28;2.10;;;;;;;;;;5064739;28;20177;-73
2022/07/19 03:37:35;;;;;;;4.65;2.05;;;;;;;;;;5061783;28;20188;-73
2022/07/19 03:40:01;;;;;;;3.33;2.13;;;;;;;;;;5065721;28;20672;-73
2022/07/19 03:42:27;;;;;;;2.95;2.10;;;;;;;;;;5067116;28;20637;-73
2022/07/19 03:44:53;;;;;;;3.05;2.10;;;;;;;;;;5065430;28;20198;-73
2022/07/19 03:47:19;;;;;;;2.05;1.85;;;;;;;;;;5067702;28;20594;-73
2022/07/19 03:49:45;;;;;;;3.03;2.20;;;;;;;;;;5065909;28;20259;-73
2022/07/19 03:52:11;;;;;;;4.38;2.30;;;;;;;;;;5067123;28;20221;-73
2022/07/19 03:54:37;;;;;;;2.90;2.10;;;;;;;;;;5066624;28;20192;-73
2022/07/19 03:57:03;;;;;;;4.88;2.25;;;;;;;;;;5067371;28;20550;-72
2022/07/19 03:59:29;;;;;;;2.83;1.90;;;;;;;;;;5064877;28;20897;-72
2022/07/19 04:01:55;;;;;;;4.90;2.38;;;;;;;;;;5067067;28;20185;-72
2022/07/19 04:04:21;;;;;;;3.78;2.47;;;;;;;;;;5066887;28;20186;-72
2022/07/19 04:06:47;;;;;;;3.03;2.53;;;;;;;;;;5067068;28;20638;-72
2022/07/19 04:09:13;;;;;;;4.72;2.60;;;;;;;;;;5065534;28;20225;-73
2022/07/19 04:11:39;;;;;;;5.07;2.50;;;;;;;;;;5066814;28;20217;-73
2022/07/19 04:14:05;;;;;;;5.78;3.08;;;;;;;;;;5066554;28;20189;-72
2022/07/19 04:16:31;;;;;;;5.70;2.65;;;;;;;;;;5066933;28;20192;-72
2022/07/19 04:18:57;;;;;;;3.42;2.72;;;;;;;;;;5063441;28;20178;-73
2022/07/19 04:21:23;;;;;;;4.43;2.60;;;;;;;;;;5066930;28;20285;-72
2022/07/19 04:23:49;;;;;;;3.40;2.58;;;;;;;;;;5066945;28;20268;-73
2022/07/19 04:26:15;;;;;;;3.55;2.60;;;;;;;;;;5066974;28;20192;-73
2022/07/19 04:28:41;;;;;;;5.28;2.60;;;;;;;;;;5066451;28;20185;-72
2022/07/19 04:31:07;;;;;;;2.60;2.35;;;;;;;;;;5066404;28;20201;-73
2022/07/19 04:33:33;;;;;;;3.28;2.10;;;;;;;;;;5066834;28;20243;-72
2022/07/19 04:35:59;;;;;;;2.80;2.40;;;;;;;;;;5066483;28;20188;-72
2022/07/19 04:38:25;;;;;;;2.75;2.47;;;;;;;;;;5065945;28;20177;-72
2022/07/19 04:40:51;;;;;;;4.70;2.50;;;;;;;;;;5066481;28;20280;-73
2022/07/19 04:43:17;;;;;;;2.78;2.10;;;;;;;;;;5066592;28;20186;-73
2022/07/19 04:45:47;;;;;;;2.25;1.67;;;;;;;;;;5066053;28;20278;-72
2022/07/19 04:48:13;;;;;;;3.75;2.10;;;;;;;;;;5065927;28;20201;-73
2022/07/19 04:50:40;;;;;;;3.47;2.20;;;;;;;;;;5065769;28;20209;-73
2022/07/19 04:53:06;;;;;;;3.47;2.50;;;;;;;;;;5066145;28;20202;-73
2022/07/19 04:55:32;;;;;;;2.20;2.00;;;;;;;;;;5065878;28;20208;-73
2022/07/19 04:57:58;;;;;;;3.63;2.13;;;;;;;;;;5066172;28;20181;-73
2022/07/19 05:00:24;;;;;;;2.88;1.98;;;;;;;;;;5064807;28;20217;-73
2022/07/19 05:02:50;;;;;;;3.08;2.20;;;;;;;;;;5066435;28;20187;-74
2022/07/19 05:05:16;;;;;;;2.00;1.80;;;;;;;;;;5065922;28;20272;-73
2022/07/19 05:07:44;;;;;;;4.18;2.08;;;;;;;;;;5066060;28;20196;-73
2022/07/19 05:10:11;;;;;;;6.10;2.20;;;;;;;;;;5064516;28;20288;-73
2022/07/19 05:12:37;;;;;;;2.92;1.80;;;;;;;;;;5066381;28;20213;-72
2022/07/19 05:15:03;;;;;;;3.88;2.00;;;;;;;;;;5065552;28;20664;-72
2022/07/19 05:17:29;;;;;;;2.65;2.15;;;;;;;;;;5066417;28;20191;-73
2022/07/19 05:19:55;;;;;;;3.17;1.75;;;;;;;;;;5064025;28;20213;-73
2022/07/19 05:22:24;;;;;;;3.13;2.00;;;;;;;;;;5065891;28;20188;-73
2022/07/19 05:24:50;;;;;;;2.75;1.90;;;;;;;;;;5065642;28;20177;-73
2022/07/19 05:27:16;;;;;;;3.25;2.13;;;;;;;;;;5065418;28;20189;-73
2022/07/19 05:29:42;;;;;;;5.95;2.33;;;;;;;;;;5064401;28;20691;-73
2022/07/19 05:32:08;;;;;;;2.40;2.10;;;;;;;;;;5064444;28;20197;-72
2022/07/19 05:34:34;;;;;;;4.05;1.90;;;;;;;;;;5065044;28;20192;-73
2022/07/19 05:37:00;;;;;;;2.72;2.28;;;;;;;;;;5065491;28;20185;-72
2022/07/19 05:39:26;;;;;;;3.47;2.15;;;;;;;;;;5063987;28;20190;-72
2022/07/19 05:41:52;;;;;;;3.63;2.40;;;;;;;;;;5065737;28;20177;-73
2022/07/19 05:44:18;;;;;;;2.17;1.90;;;;;;;;;;5064908;28;20235;-73
2022/07/19 05:46:44;;;;;;;3.20;2.30;;;;;;;;;;5065476;28;20196;-73
2022/07/19 05:49:11;;;;;;;3.72;2.22;;;;;;;;;;5064105;28;20181;-73
2022/07/19 05:51:37;;;;;;;7.93;2.20;;;;;;;;;;5064796;28;20657;-73
2022/07/19 05:54:04;;;;;;;7.18;2.40;;;;;;;;;;5065372;28;20543;-73
2022/07/19 05:56:30;;;;;;;3.75;2.28;;;;;;;;;;5064810;28;20264;-73
2022/07/19 05:58:57;;;;;;;3.13;2.10;;;;;;;;;;5063863;28;20181;-73
2022/07/19 06:01:23;;;;;;;2.20;2.00;;;;;;;;;;5061496;28;20205;-74
2022/07/19 06:03:56;;;;;;;3.63;2.20;;;;;;;;;;5064322;28;20179;-73
2022/07/19 06:06:22;;;;;;;4.82;2.20;;;;;;;;;;5064471;28;20193;-73
2022/07/19 06:08:48;;;;;;;2.78;2.30;;;;;;;;;;5063606;28;20193;-73
2022/07/19 06:11:15;;;;;;;4.35;2.25;;;;;;;;;;5063907;28;20205;-73
2022/07/19 06:13:41;;;;;;;2.20;2.00;;;;;;;;;;5064708;28;20220;-73
2022/07/19 06:16:08;;;;;;;3.47;2.20;;;;;;;;;;5064862;28;20234;-73
2022/07/19 06:18:34;;;;;;;2.35;2.13;;;;;;;;;;5063590;28;20184;-73
2022/07/19 06:21:05;;;;;;;3.95;2.42;;;;;;;;;;5063912;28;20203;-73
2022/07/19 06:23:31;;;;;;;5.13;2.03;;;;;;;;;;5064027;28;20288;-73
2022/07/19 06:25:57;;;;;;;3.00;2.28;;;;;;;;;;5064336;28;20526;-72
2022/07/19 06:28:23;;;;;;;3.10;2.17;;;;;;;;;;5063750;28;20223;-73
2022/07/19 06:30:49;;;;;;;4.63;2.00;;;;;;;;;;5060225;28;20322;-73
2022/07/19 06:33:15;;;;;;;2.38;2.17;;;;;;;;;;5063641;28;20298;-73
2022/07/19 06:35:41;;;;;;;5.85;2.50;;;;;;;;;;5064484;28;20749;-73
2022/07/19 06:38:07;;;;;;;2.67;1.95;;;;;;;;;;5063670;28;20177;-73
2022/07/19 06:40:33;;;;;;;3.50;2.30;;;;;;;;;;5064138;28;20204;-73
2022/07/19 06:42:59;;;;;;;2.92;2.30;;;;;;;;;;5064814;28;21144;-72
2022/07/19 06:45:26;;;;;;;2.45;2.10;;;;;;;;;;5064179;28;20536;-73
2022/07/19 06:47:52;;;;;;;2.85;2.30;;;;;;;;;;5064307;28;20227;-73
2022/07/19 06:50:18;;;;;;;3.10;2.47;;;;;;;;;;5063656;28;20201;-73
2022/07/19 06:52:44;;;;;;;2.38;2.00;;;;;;;;;;5063793;28;20220;-74
2022/07/19 06:55:10;;;;;;;4.10;2.10;;;;;;;;;;5064183;28;20195;-72
2022/07/19 06:57:36;;;;;;;3.83;2.33;;;;;;;;;;5063890;28;20180;-73
2022/07/19 07:00:03;;;;;;;3.55;2.35;;;;;;;;;;5063577;28;20208;-72
2022/07/19 07:02:29;;;;;;;5.07;2.47;;;;;;;;;;5064008;28;20196;-72
2022/07/19 07:04:55;;;;;;;5.95;2.55;;;;;;;;;;5064210;28;20548;-72
2022/07/19 07:07:21;;;;;;;5.47;2.40;;;;;;;;;;5064329;28;20191;-73
2022/07/19 07:09:47;;;;;;;5.50;2.05;;;;;;;;;;5066497;28;20301;-72
2022/07/19 07:12:13;;;;;;;3.22;2.20;;;;;;;;;;5068318;28;20763;-73
2022/07/19 07:14:39;;;;;;;3.17;2.20;;;;;;;;;;5068084;28;20523;-73
2022/07/19 07:17:05;;;;;;;4.43;2.40;;;;;;;;;;5068121;28;20276;-72
2022/07/19 07:19:31;;;;;;;6.60;2.40;;;;;;;;;;5067243;28;20601;-72
2022/07/19 07:21:59;;;;;;;7.00;2.38;;;;;;;;;;5068133;28;20245;-73
2022/07/19 07:24:25;;;;;;;6.68;2.28;;;;;;;;;;5068142;28;20180;-72
2022/07/19 07:26:52;;;;;;;5.47;2.20;;;;;;;;;;5068160;28;20212;-73
2022/07/19 07:29:18;;;;;;;4.35;2.60;;;;;;;;;;5066954;28;20184;-72
2022/07/19 07:31:44;;;;;;;6.88;4.07;;;;;;;;;;5068010;28;20181;-72
2022/07/19 07:34:10;;;;;;;7.70;4.45;;;;;;;;;;5067676;28;20187;-72
2022/07/19 07:36:36;;;;;;;4.63;3.72;;;;;;;;;;5067348;28;20185;-72
2022/07/19 07:39:02;;;;;;;7.28;3.50;;;;;;;;;;5066474;28;20526;-72
2022/07/19 07:41:28;;;;;;;7.75;4.20;;;;;;;;;;5067342;28;20547;-72
2022/07/19 07:43:54;;;;;;;5.38;4.40;;;;;;;;;;5066425;28;20313;-71
2022/07/19 07:46:20;;;;;;;4.68;4.05;;;;;;;;;;5067500;28;20595;-72
2022/07/19 07:48:46;;;;;;;5.82;4.45;;;;;;;;;;5065754;28;20182;-72
2022/07/19 07:51:12;;;;;;;6.18;4.72;;;;;;;;;;5067151;28;20201;-71
2022/07/19 07:53:38;;;;;;;8.25;4.68;;;;;;;;;;5067655;28;20301;-71
2022/07/19 07:56:05;;;;;;;7.70;4.80;;;;;;;;;;5066975;28;20650;-72
2022/07/19 07:58:31;;;;;;;7.20;3.55;;;;;;;;;;5067077;28;20178;-71
2022/07/19 08:00:57;;;;;;;4.20;3.25;;;;;;;;;;5067354;28;20564;-70
2022/07/19 08:03:23;;;;;;;4.60;3.00;;;;;;;;;;5067238;28;20192;-71
2022/07/19 08:05:49;;;;;;;4.55;2.72;;;;;;;;;;5063893;28;20192;-71
2022/07/19 08:08:15;;;;;;;3.40;2.63;;;;;;;;;;5066703;28;20215;-71
2022/07/19 08:10:41;;;;;;;2.53;2.33;;;;;;;;;;5066685;28;20213;-71
2022/07/19 08:13:07;;;;;;;3.88;2.75;;;;;;;;;;5067273;28;20717;-71
2022/07/19 08:15:34;;;;;;;3.63;2.33;;;;;;;;;;5066929;28;20197;-72
2022/07/19 08:18:00;;;;;;;3.97;2.50;;;;;;;;;;5067273;28;20658;-71
2022/07/19 08:20:26;;;;;;;6.65;1.90;;;;;;;;;;5065339;28;20209;-71
2022/07/19 08:22:52;;;;;;;2.92;2.63;;;;;;;;;;5067529;28;20200;-71
2022/07/19 08:25:18;;;;;;;6.05;2.40;;;;;;;;;;5066930;28;20194;-72
2022/07/19 08:27:44;;;;;;;3.60;2.00;;;;;;;;;;5067137;28;21244;-71
2022/07/19 08:30:11;;;;;;;4.38;2.65;;;;;;;;;;5066059;28;20296;-71
2022/07/19 08:32:38;;;;;;;4.65;2.33;;;;;;;;;;5066849;28;20197;-71
2022/07/19 08:35:04;;;;;;;3.70;2.28;;;;;;;;;;5066875;28;20292;-74
2022/07/19 08:37:30;;;;;;;7.22;2.53;;;;;;;;;;5067119;28;20186;-74
2022/07/19 08:39:56;;;;;;;6.97;4.45;;;;;;;;;;5065701;28;20217;-74
2022/07/19 08:42:22;;;;;;;3.22;2.72;;;;;;;;;;5066859;28;20660;-73
2022/07/19 08:44:51;;;;;;;6.32;2.60;;;;;;;;;;5066567;28;20230;-73
2022/07/19 08:47:19;;;;;;;3.25;2.50;;;;;;;;;;5066603;28;20238;-74
2022/07/19 08:49:45;;;;;;;3.55;2.30;;;;;;;;;;5065811;28;20365;-74
2022/07/19 08:52:11;;;;;;;2.47;2.28;;;;;;;;;;5066197;28;20209;-72
2022/07/19 08:54:37;;;;;;;2.90;2.28;;;;;;;;;;5064605;28;20234;-72
2022/07/19 08:59:48;;;;;;;4.70;2.95;;;;;;;;;;5065811;28;20211;-72
2022/07/19 09:02:14;;;;;;;4.32;2.40;;;;;;;;;;5066263;28;20185;-73
2022/07/19 09:04:40;;;;;;;3.08;2.25;;;;;;;;;;5066093;28;20201;-72
2022/07/19 09:07:06;;;;;;;3.42;2.40;;;;;;;;;;5066399;28;20178;-73
2022/07/19 09:09:34;;;;;;;2.70;2.50;;;;;;;;;;5065420;28;20861;-72
2022/07/19 09:12:01;;;;;;;3.03;2.05;;;;;;;;;;5066050;28;20198;-73
2022/07/19 09:14:31;;;;;;;3.03;2.30;;;;;;;;;;5066115;28;20292;-72
2022/07/19 09:17:09;;;;;;;4.07;2.53;;;;;;;;;;5066306;28;20182;-73
2022/07/19 09:19:42;;;;;;;2.20;2.00;;;;;;;;;;5065093;28;20201;-73
2022/07/19 09:22:10;;;;;;;3.92;2.33;;;;;;;;;;5065866;28;20540;-72
2022/07/19 09:24:38;;;;;;;2.58;2.38;;;;;;;;;;5065973;28;20190;-73
2022/07/19 09:27:06;;;;;;;2.70;1.90;;;;;;;;;;5066279;28;20706;-72
2022/07/19 09:29:33;;;;;;;2.53;1.85;;;;;;;;;;5065255;28;20278;-72
2022/07/19 09:31:59;;;;;;;3.25;1.98;;;;;;;;;;5064973;28;20273;-72
2022/07/19 09:34:29;;;;;;;2.38;2.13;;;;;;;;;;5065824;28;20196;-72
2022/07/19 09:37:08;;;;;;;2.33;2.03;;;;;;;;;;5065900;28;20285;-72
2022/07/19 09:39:34;;;;;;;2.50;1.70;;;;;;;;;;5064971;28;20193;-72
2022/07/19 09:42:02;;;;;;;2.58;2.03;;;;;;;;;;5065609;28;20257;-72
2022/07/19 09:44:29;;;;;;;2.30;2.10;;;;;;;;;;5065826;28;20180;-73
2022/07/19 09:46:55;;;;;;;2.00;1.90;;;;;;;;;;5065103;28;21332;-72
2022/07/19 09:49:21;;;;;;;2.60;2.25;;;;;;;;;;5062454;28;20296;-72
2022/07/19 09:51:48;;;;;;;2.75;2.00;;;;;;;;;;5064752;28;20339;-73
2022/07/19 09:54:17;;;;;;;2.03;1.70;;;;;;;;;;5065244;28;20185;-72
2022/07/19 09:56:44;;;;;;;2.20;1.88;;;;;;;;;;5064351;28;20192;-72
2022/07/19 09:59:10;;;;;;;3.78;1.83;;;;;;;;;;5063958;28;20979;-72
2022/07/19 10:01:37;;;;;;;3.00;1.73;;;;;;;;;;5065246;28;20173;-72
2022/07/19 10:04:08;;;;;;;4.72;2.05;;;;;;;;;;5065191;28;20645;-72
2022/07/19 10:06:34;;;;;;;1.92;1.75;;;;;;;;;;5064974;28;20323;-72
2022/07/19 10:09:00;;;;;;;1.50;1.40;;;;;;;;;;5063984;28;20174;-73
2022/07/19 10:11:27;;;;;;;3.63;1.75;;;;;;;;;;5065268;28;21286;-72
2022/07/19 10:13:54;;;;;;;2.00;1.50;;;;;;;;;;5065089;28;20197;-73
2022/07/19 10:16:24;;;;;;;2.10;1.25;;;;;;;;;;5064685;28;20182;-74
2022/07/19 10:19:02;;;;;;;2.80;1.23;;;;;;;;;;5064573;28;20648;-73
2022/07/19 10:21:29;;;;;;;1.90;1.38;;;;;;;;;;5062471;28;20204;-72
2022/07/19 10:23:55;;;;;;;1.48;1.33;;;;;;;;;;5063265;28;20227;-73
2022/07/19 10:26:42;;;;;;;1.67;1.48;;;;;;;;;;5064411;28;20216;-73
2022/07/19 10:29:12;;;;;;;1.35;1.25;;;;;;;;;;5064051;28;20190;-72
2022/07/19 10:31:40;;;;;;;3.65;1.20;;;;;;;;;;5063110;28;20602;-74
2022/07/19 10:34:07;;;;;;;1.70;1.42;;;;;;;;;;5065023;28;20201;-72
2022/07/19 10:36:38;;;;;;;1.38;1.15;;;;;;;;;;5063280;28;20389;-71
2022/07/19 10:39:20;;;;;;;1.40;1.30;;;;;;;;;;5064488;28;20238;-72
2022/07/19 10:42:05;;;;;;;3.30;1.60;;;;;;;;;;5064432;28;20178;-71
2022/07/19 10:44:31;;;;;;;3.05;1.48;;;;;;;;;;5064597;28;20193;-72
2022/07/19 10:46:57;;;;;;;3.08;1.60;;;;;;;;;;5064404;28;20243;-72
2022/07/19 10:49:43;;;;;;;2.65;1.50;;;;;;;;;;5064018;28;20200;-71
2022/07/19 10:52:27;;;;;;;3.30;1.55;;;;;;;;;;5067292;28;20197;-71
2022/07/19 10:55:13;;;;;;;5.53;1.75;;;;;;;;;;5068915;28;20205;-71
2022/07/19 10:57:39;;;;;;;2.55;1.40;;;;;;;;;;5072525;28;20173;-72
2022/07/19 11:00:34;;;;;;;2.13;1.92;;;;;;;;;;5070601;28;20212;-72
2022/07/19 11:03:19;;;;;;;1.92;1.73;;;;;;;;;;5069625;28;20181;-72
2022/07/19 11:06:01;;;;;;;3.80;2.00;;;;;;;;;;5072545;28;20181;-72
2022/07/19 11:08:41;;;;;;;3.30;1.70;;;;;;;;;;5071624;28;20514;-71
2022/07/19 11:11:09;;;;;;;3.00;1.90;;;;;;;;;;5071977;28;20755;-72
2022/07/19 11:13:36;;;;;;;1.92;1.60;;;;;;;;;;5071885;28;20285;-71
2022/07/19 11:16:39;;;;;;;2.10;1.88;;;;;;;;;;5069405;28;20195;-72
2022/07/19 11:19:08;;;;;;;3.08;2.10;;;;;;;;;;5069607;28;20536;-72
2022/07/19 11:36:58;;;;;;;4.10;2.30;;;;;;;;;;5073151;28;20237;-72
2022/07/19 11:39:25;;;;;;;3.70;2.13;;;;;;;;;;5072194;28;20154;-72
2022/07/19 11:41:50;;;;;;;;;;;33.10;1.00;;;;;;5073177;28;20472;-69
2022/07/19 11:44:17;;;;;;;;;;;33.10;1.00;;;;;;5073083;28;19912;-70
2022/07/19 11:46:55;;;;;;;;;;;33.40;1.00;;;;;;5072733;28;19912;-69
2022/07/19 11:49:21;;;;;;;;;;;33.50;1.00;;;;;;5069417;28;19927;-69
2022/07/19 11:55:19;;;;;;;;;;;33.50;1.00;;;;;;5073335;28;19915;-67
2022/07/19 11:57:46;;;;;;;;;;;33.20;1.00;;;;;;5076935;28;19991;-71
2022/07/19 12:00:18;;;;;;;;;;;33.10;1.00;;;;;;5076244;28;19911;-69
2022/07/19 12:02:56;;;;;;;;;;;33.00;1.00;;;;;;5067669;28;20366;-69
2022/07/19 12:05:21;;;;;;;;;;;33.10;1.00;;;;;;5071087;28;19909;-68
2022/07/19 12:07:50;;;;;;;;;;;33.20;1.00;;;;;;5075535;28;20382;-69
2022/07/19 12:10:34;;;;;;;;;;;33.40;1.00;;;;;;5074984;28;19904;-69
2022/07/19 12:13:01;;;;;;;;;;;33.60;1.00;;;;;;5069677;28;20359;-70
2022/07/19 12:18:44;;;;;;;;;;;33.80;1.00;;;;;;5075497;28;19985;-69
2022/07/19 12:21:40;;;;;;;;;;;33.80;1.00;;;;;;5073966;28;20260;-69
2022/07/19 12:27:15;;;;;;;;;;;33.60;1.00;;;;;;5061215;28;19911;-69
2022/07/19 12:32:10;;;;;;;;;;;33.70;1.00;;;;;;5034715;22;19925;-86
2022/07/19 12:34:42;;;;;;;;;;;33.80;1.00;;;;;;5030879;28;20363;-84
2022/07/19 12:37:43;;;;;;;;;;;33.90;1.00;;;;;;5030489;28;20459;-86
2022/07/19 12:40:10;;;;;;;;;;;33.80;1.00;;;;;;5015849;28;19916;-86
2022/07/19 12:42:47;;;;;;;;;;;33.70;1.00;;;;;;5026588;28;19909;-83
2022/07/19 12:45:15;;;;;;;;;;;33.70;1.00;;;;;;5028342;28;19908;-85
2022/07/19 12:47:41;;;;;;;;;;;33.80;1.00;;;;;;5032739;28;19911;-85
2022/07/19 12:50:08;;;;;;;;;;;34.10;1.00;;;;;;5030957;28;19992;-85
2022/07/19 12:52:33;;;;;;;;;;;34.30;1.00;;;;;;5024696;28;19945;-85
2022/07/19 12:54:59;;;;;;;;;;;34.30;1.00;;;;;;5036800;28;20018;-86
2022/07/19 12:57:24;;;;;;;;;;;34.30;1.00;;;;;;5030551;28;20269;-85
2022/07/19 12:59:50;;;;;;;;;;;34.30;1.00;;;;;;5032477;28;19973;-85
2022/07/19 13:02:16;;;;;;;;;;;34.30;1.00;;;;;;5022661;28;19915;-84
2022/07/19 13:04:43;;;;;;;;;;;34.30;1.00;;;;;;5030695;28;19904;-85
2022/07/19 13:07:10;;;;;;;;;;;34.40;1.00;;;;;;5030482;28;19909;-85
2022/07/19 13:09:35;;;;;;;;;;;34.10;1.00;;;;;;5031897;28;20434;-86
2022/07/19 13:12:02;;;;;;;;;;;34.10;1.00;;;;;;5035623;28;20008;-86
2022/07/19 13:14:28;;;;;;;;;;;34.40;1.00;;;;;;5030863;28;20271;-85
2022/07/19 13:16:53;;;;;;;;;;;34.50;1.00;;;;;;5035126;28;20027;-86
2022/07/19 13:19:19;;;;;;;;;;;34.40;1.00;;;;;;5034849;28;20359;-86
2022/07/19 13:21:44;;;;;;;;;;;34.50;1.00;;;;;;5034955;28;19915;-85
2022/07/19 13:24:10;;;;;;;;;;;34.60;1.00;;;;;;5025683;28;20379;-86
2022/07/19 13:26:36;;;;;;;;;;;34.80;1.00;;;;;;5024799;28;19909;-86
2022/07/19 13:29:01;;;;;;;;;;;34.90;1.00;;;;;;5029990;28;19909;-84
2022/07/19 13:31:27;;;;;;;;;;;34.80;1.00;;;;;;5030761;28;19924;-84
2022/07/19 13:33:52;;;;;;;;;;;34.80;1.00;;;;;;5029481;28;19919;-86
2022/07/19 13:36:18;;;;;;;;;;;34.90;1.00;;;;;;5027774;28;19920;-84
2022/07/19 13:38:43;;;;;;;;;;;34.80;1.00;;;;;;5028299;28;19919;-88
2022/07/19 13:41:09;;;;;;;;;;;34.70;1.00;;;;;;5034526;28;20099;-86
2022/07/19 13:43:35;;;;;;;;;;;34.80;1.00;;;;;;5033845;28;19924;-87
2022/07/19 13:46:01;;;;;;;;;;;34.90;1.00;;;;;;5036175;28;19905;-85
2022/07/19 13:48:27;;;;;;;;;;;35.00;1.00;;;;;;5033952;28;19913;-87
2022/07/19 13:50:53;;;;;;;;;;;35.00;1.00;;;;;;5027648;28;19909;-85
2022/07/19 13:53:18;;;;;;;;;;;35.10;1.00;;;;;;5027456;28;19913;-85
2022/07/19 13:55:44;;;;;;;;;;;35.10;1.00;;;;;;5032105;28;19943;-85
2022/07/19 13:58:09;;;;;;;;;;;35.00;1.00;;;;;;5027366;28;20369;-86
2022/07/19 14:00:35;;;;;;;;;;;35.10;1.00;;;;;;5036500;28;19909;-85
2022/07/19 14:03:00;;;;;;;;;;;35.30;1.00;;;;;;5028118;28;19927;-86
2022/07/19 14:05:26;;;;;;;;;;;35.20;1.00;;;;;;5028272;28;19909;-86
2022/07/19 14:07:51;;;;;;;;;;;35.10;1.00;;;;;;5026626;28;19916;-86
2022/07/19 14:10:17;;;;;;;;;;;34.90;1.00;;;;;;5034832;28;20007;-86
2022/07/19 14:12:43;;;;;;;;;;;35.00;1.00;;;;;;5031791;28;19924;-86
2022/07/19 14:15:09;;;;;;;;;;;34.80;1.00;;;;;;5029741;28;20077;-86
2022/07/19 14:17:34;;;;;;;;;;;34.80;1.00;;;;;;5028108;28;20948;-86
2022/07/19 14:20:00;;;;;;;;;;;34.80;1.00;;;;;;5033415;28;19916;-85
2022/07/19 14:22:25;;;;;;;;;;;34.80;1.00;;;;;;5033835;28;19912;-86
2022/07/19 14:24:51;;;;;;;;;;;34.80;1.00;;;;;;5029764;28;19928;-87
2022/07/19 14:27:16;;;;;;;;;;;34.80;1.00;;;;;;5029463;28;20274;-86
2022/07/19 14:29:42;;;;;;;;;;;34.80;1.00;;;;;;5027388;28;19908;-87
2022/07/19 14:32:07;;;;;;;;;;;34.90;1.00;;;;;;5024690;28;19983;-85
2022/07/19 14:34:33;;;;;;;;;;;34.90;1.00;;;;;;5022724;28;19909;-85
2022/07/19 14:36:58;;;;;;;;;;;35.00;1.00;;;;;;5032782;28;19912;-85
2022/07/19 14:39:24;;;;;;;;;;;34.90;1.00;;;;;;5037868;28;19985;-85
2022/07/19 14:41:50;;;;;;;;;;;35.00;1.00;;;;;;5030334;28;20385;-85
2022/07/19 14:44:15;;;;;;;;;;;35.10;1.00;;;;;;5043828;28;19913;-86
2022/07/19 14:46:41;;;;;;;;;;;35.20;1.00;;;;;;5032859;28;19955;-85
2022/07/19 14:49:06;;;;;;;;;;;35.00;1.00;;;;;;5024193;28;19909;-85
2022/07/19 14:51:32;;;;;;;;;;;35.10;1.00;;;;;;5035573;28;19905;-85
2022/07/19 14:54:01;;;;;;;;;;;35.20;1.00;;;;;;5032758;28;19918;-85
2022/07/19 14:56:26;;;;;;;;;;;35.10;1.00;;;;;;5030100;28;19909;-85
2022/07/19 14:58:52;;;;;;;;;;;35.00;1.00;;;;;;5026570;28;19915;-85
2022/07/19 15:01:17;;;;;;;;;;;34.80;1.00;;;;;;5038316;28;19948;-86
2022/07/19 15:03:43;;;;;;;;;;;34.70;1.00;;;;;;5039628;28;19909;-86
2022/07/19 15:06:08;;;;;;;;;;;34.50;1.00;;;;;;5035847;28;20390;-87
2022/07/19 15:08:34;;;;;;;;;;;34.50;1.00;;;;;;5034014;28;20000;-87
2022/07/19 15:10:59;;;;;;;;;;;34.30;1.00;;;;;;5031697;28;19909;-85
2022/07/19 15:13:25;;;;;;;;;;;34.20;1.00;;;;;;5034383;28;19913;-86